createdAt,value
2018-07-31T00:00:07.438Z,37.10
2018-07-31T00:02:36.080Z,37.00
2018-07-31T00:05:04.911Z,37.00
2018-07-31T00:07:33.339Z,36.90
2018-07-31T00:10:01.677Z,36.90
2018-07-31T00:12:30.142Z,36.80
2018-07-31T00:14:58.470Z,36.80
2018-07-31T00:17:27.520Z,36.80
2018-07-31T00:19:56.068Z,37.50
2018-07-31T00:22:24.911Z,36.70
2018-07-31T00:27:21.357Z,36.60
2018-07-31T00:29:49.709Z,36.60
2018-07-31T00:32:18.149Z,36.60
2018-07-31T00:34:46.911Z,36.60
2018-07-31T00:37:15.397Z,36.00
2018-07-31T00:39:43.985Z,36.40
2018-07-31T00:42:12.442Z,35.50
2018-07-31T00:44:40.943Z,35.20
2018-07-31T00:47:09.247Z,34.80
2018-07-31T00:49:37.906Z,34.40
2018-07-31T00:52:06.712Z,34.40
2018-07-31T00:54:35.042Z,34.80
2018-07-31T00:57:03.370Z,35.70
2018-07-31T00:59:32.032Z,36.10
2018-07-31T01:04:28.477Z,36.10
2018-07-31T01:06:56.845Z,35.90
2018-07-31T01:09:25.286Z,36.00
2018-07-31T01:11:53.785Z,35.80
2018-07-31T01:14:22.510Z,37.10
2018-07-31T01:16:50.972Z,38.10
2018-07-31T01:19:19.473Z,38.50
2018-07-31T01:21:48.364Z,38.20
2018-07-31T01:24:16.710Z,38.30
2018-07-31T01:26:45.227Z,39.40
2018-07-31T01:29:13.503Z,38.70
2018-07-31T01:31:41.983Z,39.00
2018-07-31T01:34:10.332Z,38.90
2018-07-31T01:39:08.875Z,39.80
2018-07-31T01:41:37.205Z,41.00
2018-07-31T01:44:05.538Z,41.40
2018-07-31T01:46:33.937Z,43.20
2018-07-31T01:49:02.525Z,43.40
2018-07-31T01:51:30.832Z,44.40
2018-07-31T01:53:59.185Z,44.30
2018-07-31T01:56:27.560Z,44.50
2018-07-31T01:58:55.894Z,44.20
2018-07-31T02:01:24.364Z,44.70
2018-07-31T02:03:52.757Z,46.00
2018-07-31T02:06:25.251Z,45.80
2018-07-31T02:08:53.758Z,48.90
2018-07-31T02:11:22.257Z,52.20
2018-07-31T02:13:51.131Z,55.40
2018-07-31T02:16:20.308Z,55.80
2018-07-31T02:21:17.172Z,57.80
2018-07-31T02:23:45.559Z,60.00
2018-07-31T02:26:13.863Z,61.30
2018-07-31T02:28:42.363Z,61.90
2018-07-31T02:31:11.420Z,62.80
2018-07-31T02:33:39.767Z,63.10
2018-07-31T02:36:08.163Z,63.30
2018-07-31T02:38:36.482Z,63.30
2018-07-31T02:41:04.820Z,64.60
2018-07-31T02:43:33.174Z,66.50
2018-07-31T02:46:01.496Z,66.40
2018-07-31T02:48:30.061Z,68.00
2018-07-31T02:50:58.442Z,68.60
2018-07-31T02:53:26.826Z,70.40
2018-07-31T02:55:55.164Z,70.80
2018-07-31T02:58:23.875Z,70.80
2018-07-31T03:00:52.157Z,70.20
2018-07-31T03:03:20.925Z,72.10
2018-07-31T03:05:49.322Z,72.60
2018-07-31T03:08:17.730Z,72.10
2018-07-31T03:10:46.393Z,72.60
2018-07-31T03:13:14.660Z,72.80
2018-07-31T03:15:43.625Z,74.20
2018-07-31T03:18:11.979Z,75.60
2018-07-31T03:20:40.373Z,76.00
2018-07-31T03:23:08.763Z,76.90
2018-07-31T03:25:37.373Z,77.20
2018-07-31T03:28:06.486Z,78.00
2018-07-31T03:30:34.781Z,78.60
2018-07-31T03:33:03.066Z,79.40
2018-07-31T03:35:31.508Z,80.40
2018-07-31T03:37:59.849Z,81.10
2018-07-31T03:40:28.256Z,81.50
2018-07-31T03:42:56.615Z,82.10
2018-07-31T03:45:24.919Z,83.00
2018-07-31T03:47:53.484Z,84.40
2018-07-31T03:50:21.842Z,85.60
2018-07-31T03:52:50.198Z,88.20
2018-07-31T03:55:18.587Z,89.60
2018-07-31T03:57:46.957Z,90.70
2018-07-31T04:00:15.299Z,91.60
2018-07-31T04:02:43.700Z,91.90
2018-07-31T04:05:12.057Z,91.90
2018-07-31T04:07:40.498Z,92.00
2018-07-31T04:10:08.905Z,92.20
2018-07-31T04:12:37.574Z,92.10
2018-07-31T04:15:05.891Z,92.00
2018-07-31T04:17:34.300Z,91.70
2018-07-31T04:20:02.847Z,91.30
2018-07-31T04:22:31.260Z,90.90
2018-07-31T04:24:59.642Z,90.30
2018-07-31T04:27:27.969Z,90.10
2018-07-31T04:29:56.299Z,87.50
2018-07-31T04:32:24.651Z,85.60
2018-07-31T04:34:53.185Z,83.60
2018-07-31T04:37:21.818Z,81.40
2018-07-31T04:39:50.317Z,79.10
2018-07-31T04:42:18.780Z,76.30
2018-07-31T04:44:47.213Z,72.70
2018-07-31T04:47:15.591Z,68.00
2018-07-31T04:49:44.000Z,65.20
2018-07-31T04:52:12.378Z,60.40
2018-07-31T04:54:40.931Z,58.00
2018-07-31T04:57:09.307Z,53.80
2018-07-31T04:59:37.738Z,52.40
2018-07-31T05:02:06.315Z,52.50
2018-07-31T05:04:34.800Z,48.90
2018-07-31T05:07:03.233Z,45.50
2018-07-31T05:09:31.687Z,42.50
2018-07-31T05:12:00.246Z,41.70
2018-07-31T05:14:28.878Z,41.50
2018-07-31T05:16:57.529Z,39.70
2018-07-31T05:19:26.060Z,37.50
2018-07-31T05:21:54.418Z,37.80
2018-07-31T05:24:22.825Z,36.70
2018-07-31T05:26:51.202Z,35.60
2018-07-31T05:29:19.705Z,33.70
2018-07-31T05:31:49.261Z,32.30
2018-07-31T05:34:17.726Z,30.80
2018-07-31T05:36:46.083Z,29.20
2018-07-31T05:39:14.458Z,29.20
2018-07-31T05:41:42.892Z,28.50
2018-07-31T05:44:14.524Z,26.90
2018-07-31T05:46:42.932Z,27.30
2018-07-31T05:49:11.314Z,26.70
2018-07-31T05:51:39.687Z,24.80
2018-07-31T05:54:08.244Z,23.60
2018-07-31T05:56:36.688Z,23.10
2018-07-31T05:59:05.070Z,23.70
2018-07-31T06:01:33.515Z,23.40
2018-07-31T06:04:01.903Z,22.80
2018-07-31T06:06:30.306Z,22.70
2018-07-31T06:08:58.683Z,21.10
2018-07-31T06:11:27.332Z,18.10
2018-07-31T06:13:55.639Z,20.30
2018-07-31T06:16:23.968Z,23.50
2018-07-31T06:18:52.384Z,26.90
2018-07-31T06:21:20.823Z,29.10
2018-07-31T06:23:49.213Z,29.10
2018-07-31T06:26:17.629Z,28.30
2018-07-31T06:28:45.968Z,28.40
2018-07-31T06:31:14.434Z,25.90
2018-07-31T06:33:42.900Z,22.60
2018-07-31T06:36:11.871Z,20.60
2018-07-31T06:38:40.350Z,18.60
2018-07-31T06:41:08.775Z,17.70
2018-07-31T06:43:37.234Z,16.10
2018-07-31T06:46:05.584Z,16.50
2018-07-31T06:48:33.884Z,15.50
2018-07-31T06:51:02.286Z,13.90
2018-07-31T06:53:30.706Z,13.80
2018-07-31T06:55:59.094Z,14.90
2018-07-31T06:58:27.593Z,13.80
2018-07-31T07:00:55.937Z,12.60
2018-07-31T07:03:25.010Z,13.00
2018-07-31T07:05:53.750Z,12.50
2018-07-31T07:08:22.482Z,10.50
2018-07-31T07:10:50.902Z,11.10
2018-07-31T07:13:19.350Z,10.60
2018-07-31T07:15:47.676Z,10.60
2018-07-31T07:18:16.155Z,10.40
2018-07-31T07:20:44.641Z,10.50
2018-07-31T07:23:13.524Z,10.20
2018-07-31T07:25:42.725Z,8.00
2018-07-31T07:28:11.088Z,6.10
2018-07-31T07:30:39.464Z,6.10
2018-07-31T07:33:08.146Z,5.30
2018-07-31T07:35:36.508Z,4.70
2018-07-31T07:38:05.032Z,4.60
2018-07-31T07:40:33.489Z,4.80
2018-07-31T07:43:01.993Z,4.70
2018-07-31T07:45:30.488Z,5.80
2018-07-31T07:47:58.991Z,5.80
2018-07-31T07:50:27.418Z,7.20
2018-07-31T07:52:55.871Z,10.00
2018-07-31T07:55:24.359Z,10.50
2018-07-31T07:57:52.783Z,8.70
2018-07-31T08:00:21.273Z,8.50
2018-07-31T08:02:50.173Z,8.00
2018-07-31T08:05:18.729Z,9.10
2018-07-31T08:07:48.871Z,8.50
2018-07-31T08:10:17.241Z,7.70
2018-07-31T08:12:49.662Z,7.30
2018-07-31T08:15:18.272Z,5.20
2018-07-31T08:17:46.660Z,4.80
2018-07-31T08:20:15.259Z,3.70
2018-07-31T08:22:44.515Z,2.60
2018-07-31T08:25:13.006Z,2.50
2018-07-31T08:27:41.860Z,3.40
2018-07-31T08:30:10.738Z,5.00
2018-07-31T08:32:39.751Z,5.40
2018-07-31T08:35:08.824Z,4.90
2018-07-31T08:37:37.898Z,4.00
2018-07-31T08:40:06.889Z,3.70
2018-07-31T08:42:38.653Z,2.90
2018-07-31T08:45:08.093Z,3.20
2018-07-31T08:47:37.282Z,2.90
2018-07-31T08:50:08.902Z,2.80
2018-07-31T08:52:37.297Z,2.80
2018-07-31T08:55:05.666Z,2.00
2018-07-31T08:57:34.029Z,2.50
2018-07-31T09:00:02.679Z,1.50
2018-07-31T09:02:31.022Z,1.00
2018-07-31T09:04:59.588Z,1.00
2018-07-31T09:07:28.544Z,1.00
2018-07-31T09:09:57.259Z,1.00
2018-07-31T09:12:25.814Z,1.00
2018-07-31T09:14:54.653Z,1.00
2018-07-31T09:17:23.323Z,1.00
2018-07-31T09:19:52.525Z,1.00
2018-07-31T09:22:21.650Z,1.00
2018-07-31T09:24:50.015Z,1.00
2018-07-31T09:27:18.533Z,1.00
2018-07-31T09:29:47.236Z,1.00
2018-07-31T09:32:15.591Z,1.00
2018-07-31T09:34:47.332Z,1.00
2018-07-31T09:37:16.382Z,1.00
2018-07-31T09:39:44.971Z,1.00
2018-07-31T09:42:13.533Z,1.00
2018-07-31T09:44:42.376Z,1.00
2018-07-31T09:47:10.941Z,1.00
2018-07-31T09:49:39.411Z,1.00
2018-07-31T09:52:07.947Z,1.00
2018-07-31T09:54:36.290Z,1.00
2018-07-31T09:57:04.925Z,1.00
2018-07-31T09:59:33.821Z,1.00
2018-07-31T10:02:02.191Z,1.00
2018-07-31T10:04:30.831Z,1.00
2018-07-31T10:06:59.151Z,1.00
2018-07-31T10:09:27.568Z,1.00
2018-07-31T10:11:56.319Z,1.00
2018-07-31T10:14:24.741Z,1.00
2018-07-31T10:16:53.547Z,1.00
2018-07-31T10:19:22.191Z,1.00
2018-07-31T10:21:50.702Z,1.00
2018-07-31T10:24:19.331Z,1.00
2018-07-31T10:26:47.856Z,1.00
2018-07-31T10:29:16.544Z,1.00
2018-07-31T10:31:45.036Z,1.00
2018-07-31T10:34:14.281Z,1.00
2018-07-31T10:36:42.620Z,1.00
2018-07-31T10:39:11.128Z,1.00
2018-07-31T10:41:40.220Z,1.00
2018-07-31T10:44:08.567Z,1.00
2018-07-31T10:46:37.500Z,1.00
2018-07-31T10:49:06.561Z,1.00
2018-07-31T10:51:34.952Z,1.00
2018-07-31T10:54:04.083Z,1.00
2018-07-31T10:56:32.531Z,1.00
2018-07-31T10:59:01.207Z,1.00
2018-07-31T11:01:30.369Z,1.00
2018-07-31T11:03:59.245Z,1.00
2018-07-31T11:06:27.900Z,1.00
2018-07-31T11:08:57.021Z,1.00
2018-07-31T11:11:26.429Z,1.00
2018-07-31T11:13:55.464Z,1.00
2018-07-31T11:16:25.198Z,1.00
2018-07-31T11:18:53.969Z,1.00
2018-07-31T11:21:24.120Z,1.00
2018-07-31T11:23:52.661Z,1.00
2018-07-31T11:26:21.041Z,1.00
2018-07-31T11:28:49.507Z,1.00
2018-07-31T11:31:18.904Z,1.00
2018-07-31T11:33:48.048Z,1.00
2018-07-31T11:36:16.451Z,1.00
2018-07-31T11:38:45.352Z,1.00
2018-07-31T11:41:14.046Z,1.00
2018-07-31T11:43:42.487Z,1.00
2018-07-31T11:46:10.974Z,1.00
2018-07-31T11:48:40.366Z,1.00
2018-07-31T11:51:09.540Z,1.00
2018-07-31T11:53:40.871Z,1.00
2018-07-31T11:56:10.005Z,1.00
2018-07-31T11:58:38.616Z,1.00
2018-07-31T12:01:07.268Z,1.00
2018-07-31T12:03:35.733Z,1.00
2018-07-31T12:06:04.139Z,1.00
2018-07-31T12:08:34.035Z,1.00
2018-07-31T12:11:03.813Z,1.00
2018-07-31T12:13:32.785Z,1.00
2018-07-31T12:16:04.228Z,1.00
2018-07-31T12:18:33.119Z,1.00
2018-07-31T12:21:02.046Z,1.00
2018-07-31T12:23:31.857Z,1.00
2018-07-31T12:26:02.284Z,1.00
2018-07-31T12:28:31.936Z,1.00
2018-07-31T12:31:00.389Z,1.00
2018-07-31T12:33:29.040Z,1.00
2018-07-31T12:35:57.488Z,1.00
2018-07-31T12:38:27.431Z,1.00
2018-07-31T12:40:55.812Z,1.00
2018-07-31T12:43:25.405Z,1.00
2018-07-31T12:45:53.805Z,1.00
2018-07-31T12:48:22.923Z,1.00
2018-07-31T12:50:52.009Z,1.00
2018-07-31T12:53:20.570Z,1.00
2018-07-31T12:55:49.154Z,1.00
2018-07-31T12:58:17.713Z,1.00
2018-07-31T13:00:47.372Z,1.00
2018-07-31T13:03:16.021Z,1.00
2018-07-31T13:05:44.671Z,1.00
2018-07-31T13:08:13.829Z,1.00
2018-07-31T13:10:42.968Z,1.00
2018-07-31T13:13:13.365Z,1.00
2018-07-31T13:15:42.094Z,1.00
2018-07-31T13:18:10.447Z,1.00
2018-07-31T13:20:38.827Z,1.00
2018-07-31T13:23:07.586Z,1.00
2018-07-31T13:25:36.196Z,1.00
2018-07-31T13:28:04.581Z,1.00
2018-07-31T13:30:33.576Z,1.00
2018-07-31T13:33:02.010Z,1.00
2018-07-31T13:35:30.366Z,1.00
2018-07-31T13:37:58.734Z,1.00
2018-07-31T13:40:27.575Z,1.00
2018-07-31T13:42:55.941Z,1.00
2018-07-31T13:45:26.144Z,1.00
2018-07-31T13:47:54.577Z,1.00
2018-07-31T13:50:23.942Z,1.00
2018-07-31T13:52:53.122Z,1.00
2018-07-31T13:55:21.569Z,1.00
2018-07-31T13:57:50.235Z,1.00
2018-07-31T14:00:18.765Z,1.00
2018-07-31T14:02:47.520Z,1.00
2018-07-31T14:05:16.113Z,1.00
2018-07-31T14:07:44.533Z,1.00
2018-07-31T14:10:12.983Z,1.00
2018-07-31T14:12:41.739Z,1.00
2018-07-31T14:15:10.371Z,1.00
2018-07-31T14:17:39.006Z,1.00
2018-07-31T14:20:07.306Z,1.00
2018-07-31T14:22:35.742Z,1.00
2018-07-31T14:25:04.821Z,1.00
2018-07-31T14:27:33.129Z,1.00
2018-07-31T14:30:01.507Z,1.00
2018-07-31T14:32:29.993Z,1.00
2018-07-31T14:34:59.661Z,1.00
2018-07-31T14:37:29.173Z,1.00
2018-07-31T14:39:57.537Z,1.00
2018-07-31T14:42:26.491Z,1.00
2018-07-31T14:44:55.090Z,1.00
2018-07-31T14:47:24.205Z,1.30
2018-07-31T14:49:52.636Z,2.10
2018-07-31T14:52:21.023Z,1.70
2018-07-31T14:54:49.354Z,1.40
2018-07-31T14:57:17.709Z,1.30
2018-07-31T14:59:46.750Z,1.20
2018-07-31T15:02:15.431Z,1.60
2018-07-31T15:04:43.787Z,1.50
2018-07-31T15:07:12.178Z,1.90
2018-07-31T15:09:41.325Z,2.30
2018-07-31T15:12:10.042Z,1.80
2018-07-31T15:14:38.372Z,1.90
2018-07-31T15:17:07.495Z,2.50
2018-07-31T15:19:35.872Z,2.80
2018-07-31T15:22:04.502Z,3.00
2018-07-31T15:24:33.468Z,2.70
2018-07-31T15:27:01.742Z,3.00
2018-07-31T15:29:30.708Z,3.10
2018-07-31T15:31:59.062Z,3.10
2018-07-31T15:34:27.574Z,2.90
2018-07-31T15:36:57.072Z,3.20
2018-07-31T15:39:25.505Z,3.70
2018-07-31T15:41:53.864Z,3.50
2018-07-31T15:44:22.438Z,3.20
2018-07-31T15:46:51.639Z,3.30
2018-07-31T15:49:20.211Z,3.00
2018-07-31T15:51:48.631Z,2.50
2018-07-31T15:54:16.993Z,2.30
2018-07-31T15:56:45.326Z,2.30
2018-07-31T15:59:13.703Z,2.30
2018-07-31T16:01:42.902Z,2.50
2018-07-31T16:04:11.264Z,2.00
2018-07-31T16:06:39.695Z,2.10
2018-07-31T16:09:09.936Z,2.10
2018-07-31T16:11:38.298Z,1.90
2018-07-31T16:14:06.950Z,2.00
2018-07-31T16:16:35.464Z,2.00
2018-07-31T16:19:03.968Z,1.90
2018-07-31T16:21:32.378Z,1.90
2018-07-31T16:24:00.758Z,2.00
2018-07-31T16:26:29.173Z,2.10
2018-07-31T16:28:57.861Z,1.40
2018-07-31T16:31:26.821Z,1.90
2018-07-31T16:33:55.214Z,1.60
2018-07-31T16:36:24.017Z,1.70
2018-07-31T16:38:52.646Z,1.60
2018-07-31T16:41:21.001Z,1.60
2018-07-31T16:43:49.547Z,1.20
2018-07-31T16:46:18.035Z,1.00
2018-07-31T16:48:46.384Z,1.20
2018-07-31T16:51:15.857Z,1.00
2018-07-31T16:53:44.176Z,1.00
2018-07-31T16:56:12.489Z,1.00
2018-07-31T16:58:40.962Z,1.00
2018-07-31T17:01:09.335Z,1.00
2018-07-31T17:03:38.110Z,1.00
2018-07-31T17:06:06.623Z,1.00
2018-07-31T17:08:34.995Z,1.00
2018-07-31T17:11:03.335Z,1.00
2018-07-31T17:13:31.740Z,1.00
2018-07-31T17:16:01.296Z,1.00
2018-07-31T17:18:29.593Z,1.00
2018-07-31T17:20:58.349Z,1.00
2018-07-31T17:23:26.785Z,1.00
2018-07-31T17:25:55.650Z,1.00
2018-07-31T17:28:24.797Z,1.00
2018-07-31T17:30:53.745Z,1.00
2018-07-31T17:33:22.114Z,1.00
2018-07-31T17:35:50.624Z,1.80
2018-07-31T17:38:21.436Z,1.20
2018-07-31T17:40:52.751Z,2.00
2018-07-31T17:43:21.328Z,2.50
2018-07-31T17:48:18.942Z,3.60
2018-07-31T17:50:47.356Z,3.50
2018-07-31T17:53:15.782Z,3.40
2018-07-31T17:55:45.059Z,3.90
2018-07-31T17:58:13.832Z,3.50
2018-07-31T18:00:42.188Z,3.80
2018-07-31T18:03:10.524Z,4.20
2018-07-31T18:05:38.996Z,4.50
2018-07-31T18:08:08.078Z,4.50
2018-07-31T18:10:36.521Z,5.80
2018-07-31T18:13:05.150Z,7.40
2018-07-31T18:15:33.489Z,8.90
2018-07-31T18:18:01.828Z,10.00
2018-07-31T18:20:30.674Z,10.60
2018-07-31T18:22:59.862Z,11.20
2018-07-31T18:25:28.682Z,11.40
2018-07-31T18:27:57.042Z,11.30
2018-07-31T18:32:53.469Z,11.90
2018-07-31T18:35:21.823Z,11.90
2018-07-31T18:37:50.651Z,11.90
2018-07-31T18:40:19.948Z,11.90
2018-07-31T18:42:48.504Z,11.80
2018-07-31T18:45:16.880Z,11.80
2018-07-31T18:47:45.578Z,11.80
2018-07-31T18:50:14.543Z,11.70
2018-07-31T18:52:42.938Z,11.90
2018-07-31T18:55:11.597Z,12.30
2018-07-31T18:57:39.895Z,12.50
2018-07-31T19:00:08.746Z,13.00
2018-07-31T19:02:37.187Z,13.10
2018-07-31T19:05:05.757Z,13.50
2018-07-31T19:07:35.539Z,13.80
2018-07-31T19:10:04.452Z,13.90
2018-07-31T19:12:33.161Z,14.20
2018-07-31T19:15:01.536Z,14.80
2018-07-31T19:17:29.964Z,15.00
2018-07-31T19:19:58.764Z,15.00
2018-07-31T19:22:27.336Z,15.20
2018-07-31T19:24:55.703Z,15.40
2018-07-31T19:29:52.166Z,15.90
2018-07-31T19:32:20.915Z,15.90
2018-07-31T19:34:49.412Z,15.40
2018-07-31T19:37:18.029Z,14.70
2018-07-31T19:39:46.640Z,14.80
2018-07-31T19:42:15.391Z,14.90
2018-07-31T19:44:43.730Z,13.70
2018-07-31T19:47:12.099Z,13.40
2018-07-31T19:49:40.731Z,13.70
2018-07-31T19:52:09.211Z,13.50
2018-07-31T19:54:38.390Z,13.60
2018-07-31T19:57:06.928Z,13.80
2018-07-31T19:59:35.438Z,14.10
2018-07-31T20:02:03.814Z,14.30
2018-07-31T20:04:32.198Z,14.40
2018-07-31T20:07:00.702Z,14.40
2018-07-31T20:09:29.717Z,14.60
2018-07-31T20:11:58.442Z,14.90
2018-07-31T20:14:26.848Z,15.20
2018-07-31T20:16:55.335Z,15.20
2018-07-31T20:19:23.892Z,15.80
2018-07-31T20:21:52.533Z,16.00
2018-07-31T20:24:20.959Z,16.30
2018-07-31T20:26:49.492Z,16.60
2018-07-31T20:29:18.137Z,17.00
2018-07-31T20:31:46.515Z,17.10
2018-07-31T20:34:14.791Z,16.20
2018-07-31T20:36:43.246Z,16.70
2018-07-31T20:39:11.818Z,16.60
2018-07-31T20:41:40.711Z,16.70
2018-07-31T20:44:10.266Z,16.60
2018-07-31T20:46:38.920Z,16.70
2018-07-31T20:49:07.321Z,16.30
2018-07-31T20:51:36.060Z,15.60
2018-07-31T20:54:04.500Z,15.60
2018-07-31T20:56:33.083Z,15.90
2018-07-31T20:59:01.453Z,15.90
2018-07-31T21:01:29.805Z,15.80
2018-07-31T21:03:58.270Z,16.00
2018-07-31T21:06:26.701Z,16.30
2018-07-31T21:08:55.119Z,16.40
2018-07-31T21:11:23.475Z,16.40
2018-07-31T21:13:51.881Z,16.00
2018-07-31T21:16:20.549Z,15.80
2018-07-31T21:18:49.550Z,15.60
2018-07-31T21:21:17.844Z,15.70
2018-07-31T21:23:46.168Z,15.80
2018-07-31T21:26:14.562Z,16.10
2018-07-31T21:28:43.059Z,16.30
2018-07-31T21:31:11.657Z,16.60
2018-07-31T21:33:40.290Z,16.70
2018-07-31T21:36:08.649Z,16.50
2018-07-31T21:38:37.452Z,16.30
2018-07-31T21:41:08.215Z,16.80
2018-07-31T21:43:37.339Z,17.10
2018-07-31T21:46:05.948Z,17.10
2018-07-31T21:48:34.357Z,17.20
2018-07-31T21:51:02.810Z,17.40
2018-07-31T21:53:31.275Z,17.90
2018-07-31T21:55:59.578Z,18.00
2018-07-31T21:58:28.394Z,18.00
2018-07-31T22:01:00.813Z,18.30
2018-07-31T22:03:30.518Z,18.20
2018-07-31T22:05:58.985Z,18.20
2018-07-31T22:08:27.371Z,18.70
2018-07-31T22:10:55.699Z,18.80
2018-07-31T22:13:24.130Z,18.90
2018-07-31T22:15:52.459Z,19.30
2018-07-31T22:18:20.893Z,19.60
2018-07-31T22:20:49.480Z,19.90
2018-07-31T22:23:18.269Z,19.80
2018-07-31T22:28:15.337Z,20.00
2018-07-31T22:30:44.096Z,19.70
2018-07-31T22:33:12.617Z,20.00
2018-07-31T22:35:41.328Z,20.40
2018-07-31T22:38:09.797Z,20.50
2018-07-31T22:40:38.429Z,21.10
2018-07-31T22:45:35.477Z,21.70
2018-07-31T22:48:03.844Z,21.20
2018-07-31T22:50:32.441Z,21.30
2018-07-31T22:53:00.940Z,21.00
2018-07-31T22:55:29.385Z,20.90
2018-07-31T22:57:57.723Z,21.20
2018-07-31T23:00:26.095Z,21.30
2018-07-31T23:02:54.435Z,21.40
2018-07-31T23:05:22.779Z,21.30
2018-07-31T23:07:51.474Z,21.70
2018-07-31T23:10:20.609Z,21.50
2018-07-31T23:12:50.033Z,21.80
2018-07-31T23:15:18.477Z,22.20
2018-07-31T23:17:47.080Z,22.30
2018-07-31T23:20:15.746Z,22.40
2018-07-31T23:22:46.426Z,22.50
2018-07-31T23:25:15.138Z,22.60
2018-07-31T23:27:43.776Z,22.50
2018-07-31T23:30:12.423Z,22.80
2018-07-31T23:35:09.651Z,23.20
2018-07-31T23:37:38.351Z,23.10
2018-07-31T23:40:07.570Z,23.60
2018-07-31T23:42:35.966Z,24.00
2018-07-31T23:45:04.659Z,23.90
2018-07-31T23:47:33.004Z,23.90
2018-07-31T23:50:01.888Z,24.30
2018-07-31T23:52:30.607Z,24.20
2018-07-31T23:54:59.158Z,24.50
2018-07-31T23:57:27.790Z,24.50
